sensor_id;sensor_type;location;lat;lon;timestamp;temperature;humidity
26947;DHT22;14501;52.282;10.560;2022-09-09T00:01:35;13.20;99.90
26947;DHT22;14501;52.282;10.560;2022-09-09T00:04:09;13.20;99.90
26947;DHT22;14501;52.282;10.560;2022-09-09T00:09:28;13.20;99.90
26947;DHT22;14501;52.282;10.560;2022-09-09T00:12:01;13.20;99.90
26947;DHT22;14501;52.282;10.560;2022-09-09T00:14:45;13.20;99.90
26947;DHT22;14501;52.282;10.560;2022-09-09T00:22:29;13.30;99.90
26947;DHT22;14501;52.282;10.560;2022-09-09T00:25:12;13.30;99.90
26947;DHT22;14501;52.282;10.560;2022-09-09T00:27:47;13.30;99.90
26947;DHT22;14501;52.282;10.560;2022-09-09T00:30:21;13.40;99.90
26947;DHT22;14501;52.282;10.560;2022-09-09T00:32:50;13.40;99.90
26947;DHT22;14501;52.282;10.560;2022-09-09T00:35:29;13.30;99.90
26947;DHT22;14501;52.282;10.560;2022-09-09T00:38:00;13.30;99.90
26947;DHT22;14501;52.282;10.560;2022-09-09T00:40:35;13.50;99.90
26947;DHT22;14501;52.282;10.560;2022-09-09T00:48:40;13.30;99.90
26947;DHT22;14501;52.282;10.560;2022-09-09T00:54:19;13.30;99.90
26947;DHT22;14501;52.282;10.560;2022-09-09T00:59:47;13.40;99.90
26947;DHT22;14501;52.282;10.560;2022-09-09T01:02:35;13.40;99.90
26947;DHT22;14501;52.282;10.560;2022-09-09T01:05:23;13.50;99.90
26947;DHT22;14501;52.282;10.560;2022-09-09T01:07:52;13.50;99.90
26947;DHT22;14501;52.282;10.560;2022-09-09T01:10:51;13.60;99.90
26947;DHT22;14501;52.282;10.560;2022-09-09T01:13:29;13.60;99.90
26947;DHT22;14501;52.282;10.560;2022-09-09T01:15:58;13.70;99.90
26947;DHT22;14501;52.282;10.560;2022-09-09T01:18:48;13.70;99.90
26947;DHT22;14501;52.282;10.560;2022-09-09T01:26:51;13.70;99.90
26947;DHT22;14501;52.282;10.560;2022-09-09T01:29:18;13.70;99.90
26947;DHT22;14501;52.282;10.560;2022-09-09T01:31:56;13.60;99.90
26947;DHT22;14501;52.282;10.560;2022-09-09T01:34:24;13.60;99.90
26947;DHT22;14501;52.282;10.560;2022-09-09T01:36:59;13.50;99.90
26947;DHT22;14501;52.282;10.560;2022-09-09T01:39:27;13.50;99.90
26947;DHT22;14501;52.282;10.560;2022-09-09T01:41:55;13.40;99.90
26947;DHT22;14501;52.282;10.560;2022-09-09T01:44:21;13.40;99.90
26947;DHT22;14501;52.282;10.560;2022-09-09T01:46:47;13.40;99.90
26947;DHT22;14501;52.282;10.560;2022-09-09T01:49:13;13.30;99.90
26947;DHT22;14501;52.282;10.560;2022-09-09T01:51:40;13.30;99.90
26947;DHT22;14501;52.282;10.560;2022-09-09T01:54:07;13.30;99.90
26947;DHT22;14501;52.282;10.560;2022-09-09T01:56:47;13.40;99.90
26947;DHT22;14501;52.282;10.560;2022-09-09T02:02:13;13.20;99.90
26947;DHT22;14501;52.282;10.560;2022-09-09T02:04:49;13.20;99.90
26947;DHT22;14501;52.282;10.560;2022-09-09T02:07:42;13.10;99.90
26947;DHT22;14501;52.282;10.560;2022-09-09T02:10:12;13.10;99.90
26947;DHT22;14501;52.282;10.560;2022-09-09T02:12:44;13.10;99.90
26947;DHT22;14501;52.282;10.560;2022-09-09T02:18:03;13.00;99.90
26947;DHT22;14501;52.282;10.560;2022-09-09T02:20:34;13.10;99.90
26947;DHT22;14501;52.282;10.560;2022-09-09T02:23:02;13.10;99.90
26947;DHT22;14501;52.282;10.560;2022-09-09T02:25:29;13.10;99.90
26947;DHT22;14501;52.282;10.560;2022-09-09T02:27:56;13.10;99.90
26947;DHT22;14501;52.282;10.560;2022-09-09T02:30:28;13.00;99.90
26947;DHT22;14501;52.282;10.560;2022-09-09T02:32:56;13.00;99.90
26947;DHT22;14501;52.282;10.560;2022-09-09T02:35:24;13.00;99.90
26947;DHT22;14501;52.282;10.560;2022-09-09T02:37:53;13.00;99.90
26947;DHT22;14501;52.282;10.560;2022-09-09T02:40:20;13.00;99.90
26947;DHT22;14501;52.282;10.560;2022-09-09T02:42:48;13.00;99.90
26947;DHT22;14501;52.282;10.560;2022-09-09T02:45:17;12.90;99.90
26947;DHT22;14501;52.282;10.560;2022-09-09T02:50:55;12.90;99.90
26947;DHT22;14501;52.282;10.560;2022-09-09T02:56:16;12.80;99.90
26947;DHT22;14501;52.282;10.560;2022-09-09T02:58:43;12.90;99.90
26947;DHT22;14501;52.282;10.560;2022-09-09T03:01:09;12.80;99.90
26947;DHT22;14501;52.282;10.560;2022-09-09T03:03:35;12.80;99.90
26947;DHT22;14501;52.282;10.560;2022-09-09T03:06:01;12.80;99.90
26947;DHT22;14501;52.282;10.560;2022-09-09T03:08:27;12.80;99.90
26947;DHT22;14501;52.282;10.560;2022-09-09T03:10:54;12.80;99.90
26947;DHT22;14501;52.282;10.560;2022-09-09T03:13:20;12.80;99.90
26947;DHT22;14501;52.282;10.560;2022-09-09T03:15:47;12.70;99.90
26947;DHT22;14501;52.282;10.560;2022-09-09T03:18:13;13.10;99.90
26947;DHT22;14501;52.282;10.560;2022-09-09T03:20:39;12.70;99.90
26947;DHT22;14501;52.282;10.560;2022-09-09T03:23:04;12.70;99.90
26947;DHT22;14501;52.282;10.560;2022-09-09T03:25:30;12.70;99.90
26947;DHT22;14501;52.282;10.560;2022-09-09T03:27:55;12.70;99.90
26947;DHT22;14501;52.282;10.560;2022-09-09T03:30:23;12.70;99.90
26947;DHT22;14501;52.282;10.560;2022-09-09T03:32:49;12.60;99.90
26947;DHT22;14501;52.282;10.560;2022-09-09T03:35:14;12.60;99.90
26947;DHT22;14501;52.282;10.560;2022-09-09T03:37:41;12.60;99.90
26947;DHT22;14501;52.282;10.560;2022-09-09T03:40:07;12.60;99.90
26947;DHT22;14501;52.282;10.560;2022-09-09T03:42:35;12.60;99.90
26947;DHT22;14501;52.282;10.560;2022-09-09T03:45:03;12.40;99.90
26947;DHT22;14501;52.282;10.560;2022-09-09T03:47:29;12.60;99.90
26947;DHT22;14501;52.282;10.560;2022-09-09T03:49:55;12.60;99.90
26947;DHT22;14501;52.282;10.560;2022-09-09T03:52:21;12.60;99.90
26947;DHT22;14501;52.282;10.560;2022-09-09T03:54:50;12.60;99.90
26947;DHT22;14501;52.282;10.560;2022-09-09T03:57:16;12.70;99.90
26947;DHT22;14501;52.282;10.560;2022-09-09T03:59:42;12.70;99.90
26947;DHT22;14501;52.282;10.560;2022-09-09T04:02:08;12.80;99.90
26947;DHT22;14501;52.282;10.560;2022-09-09T04:04:34;12.80;99.90
26947;DHT22;14501;52.282;10.560;2022-09-09T04:07:00;12.90;99.90
26947;DHT22;14501;52.282;10.560;2022-09-09T04:09:25;12.90;99.90
26947;DHT22;14501;52.282;10.560;2022-09-09T04:11:51;13.00;99.90
26947;DHT22;14501;52.282;10.560;2022-09-09T04:14:18;13.10;99.90
26947;DHT22;14501;52.282;10.560;2022-09-09T04:16:44;13.20;99.90
26947;DHT22;14501;52.282;10.560;2022-09-09T04:19:10;13.20;99.90
26947;DHT22;14501;52.282;10.560;2022-09-09T04:21:38;13.30;99.90
26947;DHT22;14501;52.282;10.560;2022-09-09T04:24:05;13.30;99.90
26947;DHT22;14501;52.282;10.560;2022-09-09T04:26:31;13.30;99.90
26947;DHT22;14501;52.282;10.560;2022-09-09T04:28:57;13.40;99.90
26947;DHT22;14501;52.282;10.560;2022-09-09T04:31:23;13.40;99.90
26947;DHT22;14501;52.282;10.560;2022-09-09T04:33:51;13.40;99.90
26947;DHT22;14501;52.282;10.560;2022-09-09T04:36:18;13.40;99.90
26947;DHT22;14501;52.282;10.560;2022-09-09T04:38:45;13.40;99.90
26947;DHT22;14501;52.282;10.560;2022-09-09T04:41:11;13.50;99.90
26947;DHT22;14501;52.282;10.560;2022-09-09T04:43:38;13.50;99.90
26947;DHT22;14501;52.282;10.560;2022-09-09T04:46:04;13.50;99.90
26947;DHT22;14501;52.282;10.560;2022-09-09T04:48:29;13.50;99.90
26947;DHT22;14501;52.282;10.560;2022-09-09T04:51:02;13.50;99.90
26947;DHT22;14501;52.282;10.560;2022-09-09T04:53:29;13.60;99.90
26947;DHT22;14501;52.282;10.560;2022-09-09T04:56:05;13.70;99.90
26947;DHT22;14501;52.282;10.560;2022-09-09T04:58:31;13.60;99.90
26947;DHT22;14501;52.282;10.560;2022-09-09T05:01:08;13.60;99.90
26947;DHT22;14501;52.282;10.560;2022-09-09T05:03:34;13.50;99.90
26947;DHT22;14501;52.282;10.560;2022-09-09T05:06:11;13.60;99.90
26947;DHT22;14501;52.282;10.560;2022-09-09T05:08:38;13.70;99.90
26947;DHT22;14501;52.282;10.560;2022-09-09T05:11:17;13.70;99.90
26947;DHT22;14501;52.282;10.560;2022-09-09T05:13:44;13.70;99.90
26947;DHT22;14501;52.282;10.560;2022-09-09T05:16:10;13.80;99.90
26947;DHT22;14501;52.282;10.560;2022-09-09T05:18:39;13.90;99.90
26947;DHT22;14501;52.282;10.560;2022-09-09T05:21:05;14.00;99.90
26947;DHT22;14501;52.282;10.560;2022-09-09T05:23:32;14.10;99.90
26947;DHT22;14501;52.282;10.560;2022-09-09T05:25:59;14.20;99.90
26947;DHT22;14501;52.282;10.560;2022-09-09T05:28:25;14.20;99.90
26947;DHT22;14501;52.282;10.560;2022-09-09T05:30:56;14.30;99.90
26947;DHT22;14501;52.282;10.560;2022-09-09T05:33:23;14.50;99.90
26947;DHT22;14501;52.282;10.560;2022-09-09T05:35:58;14.50;99.90
26947;DHT22;14501;52.282;10.560;2022-09-09T05:38:24;14.70;99.90
26947;DHT22;14501;52.282;10.560;2022-09-09T05:40:51;14.80;99.90
26947;DHT22;14501;52.282;10.560;2022-09-09T05:43:18;14.80;99.90
26947;DHT22;14501;52.282;10.560;2022-09-09T05:45:48;14.80;99.90
26947;DHT22;14501;52.282;10.560;2022-09-09T05:48:17;14.90;99.90
26947;DHT22;14501;52.282;10.560;2022-09-09T05:50:43;15.00;99.90
26947;DHT22;14501;52.282;10.560;2022-09-09T05:53:10;15.10;99.90
26947;DHT22;14501;52.282;10.560;2022-09-09T05:55:36;15.20;99.90
26947;DHT22;14501;52.282;10.560;2022-09-09T05:58:02;15.40;99.90
26947;DHT22;14501;52.282;10.560;2022-09-09T06:00:28;15.50;99.90
26947;DHT22;14501;52.282;10.560;2022-09-09T06:02:54;15.50;99.90
26947;DHT22;14501;52.282;10.560;2022-09-09T06:05:20;15.60;99.90
26947;DHT22;14501;52.282;10.560;2022-09-09T06:07:48;15.80;99.90
26947;DHT22;14501;52.282;10.560;2022-09-09T06:10:13;15.90;99.90
26947;DHT22;14501;52.282;10.560;2022-09-09T06:12:39;16.00;99.90
26947;DHT22;14501;52.282;10.560;2022-09-09T06:15:05;15.90;99.90
26947;DHT22;14501;52.282;10.560;2022-09-09T06:17:31;15.90;99.90
26947;DHT22;14501;52.282;10.560;2022-09-09T06:19:56;15.80;99.90
26947;DHT22;14501;52.282;10.560;2022-09-09T06:22:22;15.80;99.90
26947;DHT22;14501;52.282;10.560;2022-09-09T06:24:48;15.80;99.90
26947;DHT22;14501;52.282;10.560;2022-09-09T06:27:13;16.00;99.90
26947;DHT22;14501;52.282;10.560;2022-09-09T06:29:39;16.00;99.90
26947;DHT22;14501;52.282;10.560;2022-09-09T06:32:05;16.20;99.90
26947;DHT22;14501;52.282;10.560;2022-09-09T06:34:30;16.50;99.90
26947;DHT22;14501;52.282;10.560;2022-09-09T06:36:56;16.80;99.90
26947;DHT22;14501;52.282;10.560;2022-09-09T06:39:23;17.10;99.90
26947;DHT22;14501;52.282;10.560;2022-09-09T06:41:49;17.40;99.90
26947;DHT22;14501;52.282;10.560;2022-09-09T06:44:18;17.60;99.90
26947;DHT22;14501;52.282;10.560;2022-09-09T06:46:44;18.10;99.90
26947;DHT22;14501;52.282;10.560;2022-09-09T06:49:12;18.20;99.90
26947;DHT22;14501;52.282;10.560;2022-09-09T06:51:38;18.40;99.90
26947;DHT22;14501;52.282;10.560;2022-09-09T06:54:08;18.70;99.90
26947;DHT22;14501;52.282;10.560;2022-09-09T06:56:36;18.90;99.90
26947;DHT22;14501;52.282;10.560;2022-09-09T06:59:05;19.10;99.90
26947;DHT22;14501;52.282;10.560;2022-09-09T07:01:33;19.20;99.90
26947;DHT22;14501;52.282;10.560;2022-09-09T07:04:00;19.30;99.90
26947;DHT22;14501;52.282;10.560;2022-09-09T07:06:40;19.30;99.90
26947;DHT22;14501;52.282;10.560;2022-09-09T07:09:08;19.10;99.90
26947;DHT22;14501;52.282;10.560;2022-09-09T07:11:48;19.20;99.90
26947;DHT22;14501;52.282;10.560;2022-09-09T07:14:14;19.30;99.90
26947;DHT22;14501;52.282;10.560;2022-09-09T07:16:41;19.50;99.90
26947;DHT22;14501;52.282;10.560;2022-09-09T07:19:07;19.50;99.90
26947;DHT22;14501;52.282;10.560;2022-09-09T07:21:33;19.50;99.90
26947;DHT22;14501;52.282;10.560;2022-09-09T07:23:59;19.50;99.90
26947;DHT22;14501;52.282;10.560;2022-09-09T07:26:28;19.30;99.90
26947;DHT22;14501;52.282;10.560;2022-09-09T07:31:26;19.40;99.90
26947;DHT22;14501;52.282;10.560;2022-09-09T07:33:52;17.10;99.90
26947;DHT22;14501;52.282;10.560;2022-09-09T07:36:21;19.90;99.90
26947;DHT22;14501;52.282;10.560;2022-09-09T07:38:58;19.90;99.90
26947;DHT22;14501;52.282;10.560;2022-09-09T07:41:32;19.90;99.90
26947;DHT22;14501;52.282;10.560;2022-09-09T07:44:03;20.10;99.90
26947;DHT22;14501;52.282;10.560;2022-09-09T07:46:29;20.10;99.90
26947;DHT22;14501;52.282;10.560;2022-09-09T07:48:56;20.10;99.90
26947;DHT22;14501;52.282;10.560;2022-09-09T07:51:27;20.10;99.90
26947;DHT22;14501;52.282;10.560;2022-09-09T07:53:58;20.20;99.90
26947;DHT22;14501;52.282;10.560;2022-09-09T07:56:26;20.10;99.90
26947;DHT22;14501;52.282;10.560;2022-09-09T07:58:53;20.30;99.90
26947;DHT22;14501;52.282;10.560;2022-09-09T08:01:21;20.40;99.90
26947;DHT22;14501;52.282;10.560;2022-09-09T08:03:53;20.50;99.90
26947;DHT22;14501;52.282;10.560;2022-09-09T08:06:19;20.90;99.90
26947;DHT22;14501;52.282;10.560;2022-09-09T08:08:50;23.90;99.90
26947;DHT22;14501;52.282;10.560;2022-09-09T08:11:16;25.40;99.90
26947;DHT22;14501;52.282;10.560;2022-09-09T08:13:43;28.90;99.90
26947;DHT22;14501;52.282;10.560;2022-09-09T08:16:14;28.70;99.90
26947;DHT22;14501;52.282;10.560;2022-09-09T08:18:41;31.90;99.90
26947;DHT22;14501;52.282;10.560;2022-09-09T08:21:10;32.50;99.90
26947;DHT22;14501;52.282;10.560;2022-09-09T08:23:43;34.50;97.10
26947;DHT22;14501;52.282;10.560;2022-09-09T08:26:16;36.70;93.90
26947;DHT22;14501;52.282;10.560;2022-09-09T08:28:43;38.20;84.90
26947;DHT22;14501;52.282;10.560;2022-09-09T08:31:14;37.90;83.70
26947;DHT22;14501;52.282;10.560;2022-09-09T08:33:41;35.50;83.30
26947;DHT22;14501;52.282;10.560;2022-09-09T08:36:10;32.90;88.80
26947;DHT22;14501;52.282;10.560;2022-09-09T08:38:37;29.30;93.60
26947;DHT22;14501;52.282;10.560;2022-09-09T08:43:46;27.10;97.60
26947;DHT22;14501;52.282;10.560;2022-09-09T08:46:19;25.90;99.90
26947;DHT22;14501;52.282;10.560;2022-09-09T08:51:43;24.00;99.90
26947;DHT22;14501;52.282;10.560;2022-09-09T08:54:09;24.20;99.90
26947;DHT22;14501;52.282;10.560;2022-09-09T08:56:36;24.60;99.90
26947;DHT22;14501;52.282;10.560;2022-09-09T08:59:02;24.60;99.90
26947;DHT22;14501;52.282;10.560;2022-09-09T09:04:36;24.00;99.90
26947;DHT22;14501;52.282;10.560;2022-09-09T09:07:21;23.30;99.90
26947;DHT22;14501;52.282;10.560;2022-09-09T09:12:47;22.70;99.90
26947;DHT22;14501;52.282;10.560;2022-09-09T09:15:22;22.20;99.90
26947;DHT22;14501;52.282;10.560;2022-09-09T09:17:49;21.80;99.90
26947;DHT22;14501;52.282;10.560;2022-09-09T09:20:16;21.70;99.90
26947;DHT22;14501;52.282;10.560;2022-09-09T09:22:49;21.60;99.90
26947;DHT22;14501;52.282;10.560;2022-09-09T09:25:37;21.90;99.90
26947;DHT22;14501;52.282;10.560;2022-09-09T09:28:17;24.00;99.90
26947;DHT22;14501;52.282;10.560;2022-09-09T09:30:54;24.30;99.90
26947;DHT22;14501;52.282;10.560;2022-09-09T09:33:53;24.60;99.90
26947;DHT22;14501;52.282;10.560;2022-09-09T09:36:21;24.60;99.90
26947;DHT22;14501;52.282;10.560;2022-09-09T09:38:57;27.50;99.90
26947;DHT22;14501;52.282;10.560;2022-09-09T09:43:56;28.00;99.90
26947;DHT22;14501;52.282;10.560;2022-09-09T09:46:23;28.50;99.90
26947;DHT22;14501;52.282;10.560;2022-09-09T09:49:05;30.50;99.30
26947;DHT22;14501;52.282;10.560;2022-09-09T09:51:32;30.20;98.50
26947;DHT22;14501;52.282;10.560;2022-09-09T09:56:41;28.20;99.90
26947;DHT22;14501;52.282;10.560;2022-09-09T10:01:46;27.80;99.90
26947;DHT22;14501;52.282;10.560;2022-09-09T10:04:17;27.40;99.90
26947;DHT22;14501;52.282;10.560;2022-09-09T10:06:44;26.70;99.90
26947;DHT22;14501;52.282;10.560;2022-09-09T10:09:23;26.90;99.90
26947;DHT22;14501;52.282;10.560;2022-09-09T10:18:06;25.20;99.90
26947;DHT22;14501;52.282;10.560;2022-09-09T10:32:38;23.50;99.90
26947;DHT22;14501;52.282;10.560;2022-09-09T10:35:43;23.00;99.90
26947;DHT22;14501;52.282;10.560;2022-09-09T10:38:22;22.90;99.90
26947;DHT22;14501;52.282;10.560;2022-09-09T10:43:38;23.20;99.90
26947;DHT22;14501;52.282;10.560;2022-09-09T10:52:15;24.60;99.90
26947;DHT22;14501;52.282;10.560;2022-09-09T11:00:02;24.20;99.90
26947;DHT22;14501;52.282;10.560;2022-09-09T11:02:31;24.40;99.90
26947;DHT22;14501;52.282;10.560;2022-09-09T11:07:41;23.80;99.90
26947;DHT22;14501;52.282;10.560;2022-09-09T11:10:48;23.80;99.90
26947;DHT22;14501;52.282;10.560;2022-09-09T11:18:46;23.00;99.90
26947;DHT22;14501;52.282;10.560;2022-09-09T11:21:34;22.90;99.90
26947;DHT22;14501;52.282;10.560;2022-09-09T11:24:10;23.00;99.90
26947;DHT22;14501;52.282;10.560;2022-09-09T11:26:43;23.00;99.90
26947;DHT22;14501;52.282;10.560;2022-09-09T11:32:22;23.60;99.90
26947;DHT22;14501;52.282;10.560;2022-09-09T11:40:43;23.80;99.90
26947;DHT22;14501;52.282;10.560;2022-09-09T11:43:30;23.70;99.90
26947;DHT22;14501;52.282;10.560;2022-09-09T11:45:59;23.50;99.90
26947;DHT22;14501;52.282;10.560;2022-09-09T11:48:31;23.10;99.90
26947;DHT22;14501;52.282;10.560;2022-09-09T11:51:12;23.10;99.90
26947;DHT22;14501;52.282;10.560;2022-09-09T11:53:55;23.00;99.90
26947;DHT22;14501;52.282;10.560;2022-09-09T11:56:41;22.70;99.90
26947;DHT22;14501;52.282;10.560;2022-09-09T11:59:27;22.60;99.90
26947;DHT22;14501;52.282;10.560;2022-09-09T12:02:30;22.60;99.90
26947;DHT22;14501;52.282;10.560;2022-09-09T12:05:10;22.70;99.90
26947;DHT22;14501;52.282;10.560;2022-09-09T12:07:55;22.70;99.90
26947;DHT22;14501;52.282;10.560;2022-09-09T12:10:33;22.70;99.90
26947;DHT22;14501;52.282;10.560;2022-09-09T12:13:17;22.80;99.90
26947;DHT22;14501;52.282;10.560;2022-09-09T12:15:52;23.10;99.90
26947;DHT22;14501;52.282;10.560;2022-09-09T12:18:39;24.10;99.90
26947;DHT22;14501;52.282;10.560;2022-09-09T12:21:33;24.40;99.90
26947;DHT22;14501;52.282;10.560;2022-09-09T12:24:10;24.80;99.90
26947;DHT22;14501;52.282;10.560;2022-09-09T12:26:46;25.30;99.90
26947;DHT22;14501;52.282;10.560;2022-09-09T12:29:26;25.70;99.90
26947;DHT22;14501;52.282;10.560;2022-09-09T12:32:07;25.70;99.90
26947;DHT22;14501;52.282;10.560;2022-09-09T12:37:55;25.20;99.90
26947;DHT22;14501;52.282;10.560;2022-09-09T12:40:30;25.10;99.90
26947;DHT22;14501;52.282;10.560;2022-09-09T12:42:58;25.00;99.90
26947;DHT22;14501;52.282;10.560;2022-09-09T12:45:30;24.90;99.90
26947;DHT22;14501;52.282;10.560;2022-09-09T12:48:06;24.50;99.90
26947;DHT22;14501;52.282;10.560;2022-09-09T12:50:43;24.50;99.90
26947;DHT22;14501;52.282;10.560;2022-09-09T12:53:16;24.50;99.90
26947;DHT22;14501;52.282;10.560;2022-09-09T12:56:01;24.40;99.90
26947;DHT22;14501;52.282;10.560;2022-09-09T12:58:29;24.50;99.90
26947;DHT22;14501;52.282;10.560;2022-09-09T13:00:59;24.60;99.90
26947;DHT22;14501;52.282;10.560;2022-09-09T13:03:26;24.70;99.90
26947;DHT22;14501;52.282;10.560;2022-09-09T13:05:53;24.60;99.90
26947;DHT22;14501;52.282;10.560;2022-09-09T13:08:19;24.70;99.90
26947;DHT22;14501;52.282;10.560;2022-09-09T13:11:01;24.60;99.90
26947;DHT22;14501;52.282;10.560;2022-09-09T13:13:38;24.50;99.90
26947;DHT22;14501;52.282;10.560;2022-09-09T13:16:06;24.40;99.90
26947;DHT22;14501;52.282;10.560;2022-09-09T13:18:41;24.20;99.90
26947;DHT22;14501;52.282;10.560;2022-09-09T13:21:07;23.60;99.90
26947;DHT22;14501;52.282;10.560;2022-09-09T13:23:35;23.40;99.90
26947;DHT22;14501;52.282;10.560;2022-09-09T13:26:06;23.30;99.90
26947;DHT22;14501;52.282;10.560;2022-09-09T13:28:44;23.30;99.90
26947;DHT22;14501;52.282;10.560;2022-09-09T13:31:28;22.90;99.90
26947;DHT22;14501;52.282;10.560;2022-09-09T13:33:55;22.50;99.90
26947;DHT22;14501;52.282;10.560;2022-09-09T13:36:33;22.50;99.90
26947;DHT22;14501;52.282;10.560;2022-09-09T13:39:02;22.60;99.90
26947;DHT22;14501;52.282;10.560;2022-09-09T13:41:34;23.00;99.90
26947;DHT22;14501;52.282;10.560;2022-09-09T13:44:03;23.00;99.90
26947;DHT22;14501;52.282;10.560;2022-09-09T13:46:39;23.10;99.90
26947;DHT22;14501;52.282;10.560;2022-09-09T13:51:45;23.40;99.90
26947;DHT22;14501;52.282;10.560;2022-09-09T13:54:13;22.80;99.90
26947;DHT22;14501;52.282;10.560;2022-09-09T13:56:41;22.70;99.90
26947;DHT22;14501;52.282;10.560;2022-09-09T13:59:14;22.50;99.90
26947;DHT22;14501;52.282;10.560;2022-09-09T14:01:40;22.50;99.90
26947;DHT22;14501;52.282;10.560;2022-09-09T14:04:07;23.00;99.90
26947;DHT22;14501;52.282;10.560;2022-09-09T14:06:34;23.00;99.90
26947;DHT22;14501;52.282;10.560;2022-09-09T14:09:03;23.20;99.90
26947;DHT22;14501;52.282;10.560;2022-09-09T14:11:28;23.40;99.90
26947;DHT22;14501;52.282;10.560;2022-09-09T14:13:54;23.50;99.90
26947;DHT22;14501;52.282;10.560;2022-09-09T14:16:19;23.40;99.90
26947;DHT22;14501;52.282;10.560;2022-09-09T14:18:47;23.30;99.90
26947;DHT22;14501;52.282;10.560;2022-09-09T14:21:13;23.20;99.90
26947;DHT22;14501;52.282;10.560;2022-09-09T14:23:41;23.00;99.90
26947;DHT22;14501;52.282;10.560;2022-09-09T14:26:07;22.80;99.90
26947;DHT22;14501;52.282;10.560;2022-09-09T14:28:34;22.70;99.90
26947;DHT22;14501;52.282;10.560;2022-09-09T14:31:01;22.60;99.90
26947;DHT22;14501;52.282;10.560;2022-09-09T14:33:27;22.60;99.90
26947;DHT22;14501;52.282;10.560;2022-09-09T14:35:59;22.50;99.90
26947;DHT22;14501;52.282;10.560;2022-09-09T14:38:28;22.40;99.90
26947;DHT22;14501;52.282;10.560;2022-09-09T14:40:54;22.20;99.90
26947;DHT22;14501;52.282;10.560;2022-09-09T14:43:19;22.00;99.90
26947;DHT22;14501;52.282;10.560;2022-09-09T14:45:46;21.70;99.90
26947;DHT22;14501;52.282;10.560;2022-09-09T14:48:14;21.50;99.90
26947;DHT22;14501;52.282;10.560;2022-09-09T14:50:40;21.30;99.90
26947;DHT22;14501;52.282;10.560;2022-09-09T14:53:06;21.10;99.90
26947;DHT22;14501;52.282;10.560;2022-09-09T14:55:32;20.80;99.90
26947;DHT22;14501;52.282;10.560;2022-09-09T14:57:58;20.80;99.90
26947;DHT22;14501;52.282;10.560;2022-09-09T15:00:24;20.70;99.90
26947;DHT22;14501;52.282;10.560;2022-09-09T15:02:53;20.50;99.90
26947;DHT22;14501;52.282;10.560;2022-09-09T15:05:18;20.50;99.90
26947;DHT22;14501;52.282;10.560;2022-09-09T15:07:45;20.40;99.90
26947;DHT22;14501;52.282;10.560;2022-09-09T15:10:10;20.40;99.90
26947;DHT22;14501;52.282;10.560;2022-09-09T15:12:36;20.40;99.90
26947;DHT22;14501;52.282;10.560;2022-09-09T15:15:04;20.40;99.90
26947;DHT22;14501;52.282;10.560;2022-09-09T15:17:30;20.40;99.90
26947;DHT22;14501;52.282;10.560;2022-09-09T15:19:56;20.40;99.90
26947;DHT22;14501;52.282;10.560;2022-09-09T15:22:22;20.40;99.90
26947;DHT22;14501;52.282;10.560;2022-09-09T15:24:49;20.50;99.90
26947;DHT22;14501;52.282;10.560;2022-09-09T15:27:15;20.50;99.90
26947;DHT22;14501;52.282;10.560;2022-09-09T15:29:41;20.50;99.90
26947;DHT22;14501;52.282;10.560;2022-09-09T15:32:07;20.60;99.90
26947;DHT22;14501;52.282;10.560;2022-09-09T15:34:33;20.60;99.90
26947;DHT22;14501;52.282;10.560;2022-09-09T15:36:59;20.60;99.90
26947;DHT22;14501;52.282;10.560;2022-09-09T15:39:25;20.70;99.90
26947;DHT22;14501;52.282;10.560;2022-09-09T15:41:51;20.70;99.90
26947;DHT22;14501;52.282;10.560;2022-09-09T15:44:17;20.90;99.90
26947;DHT22;14501;52.282;10.560;2022-09-09T15:46:45;20.90;99.90
26947;DHT22;14501;52.282;10.560;2022-09-09T15:49:16;20.90;99.90
26947;DHT22;14501;52.282;10.560;2022-09-09T15:51:52;20.90;99.90
26947;DHT22;14501;52.282;10.560;2022-09-09T15:54:20;20.90;99.90
26947;DHT22;14501;52.282;10.560;2022-09-09T15:56:51;21.00;99.90
26947;DHT22;14501;52.282;10.560;2022-09-09T15:59:17;21.00;99.90
26947;DHT22;14501;52.282;10.560;2022-09-09T16:01:43;21.00;99.90
26947;DHT22;14501;52.282;10.560;2022-09-09T16:04:09;21.00;99.90
26947;DHT22;14501;52.282;10.560;2022-09-09T16:06:35;20.90;99.90
26947;DHT22;14501;52.282;10.560;2022-09-09T16:09:04;20.90;99.90
26947;DHT22;14501;52.282;10.560;2022-09-09T16:11:32;21.00;99.90
26947;DHT22;14501;52.282;10.560;2022-09-09T16:13:58;21.20;99.90
26947;DHT22;14501;52.282;10.560;2022-09-09T16:16:27;21.20;99.90
26947;DHT22;14501;52.282;10.560;2022-09-09T16:18:58;21.30;99.90
26947;DHT22;14501;52.282;10.560;2022-09-09T16:21:30;21.40;99.90
26947;DHT22;14501;52.282;10.560;2022-09-09T16:23:57;21.30;99.90
26947;DHT22;14501;52.282;10.560;2022-09-09T16:26:24;21.30;99.90
26947;DHT22;14501;52.282;10.560;2022-09-09T16:28:50;21.20;99.90
26947;DHT22;14501;52.282;10.560;2022-09-09T16:31:21;21.00;99.90
26947;DHT22;14501;52.282;10.560;2022-09-09T16:33:47;21.00;99.90
26947;DHT22;14501;52.282;10.560;2022-09-09T16:36:24;20.90;99.90
26947;DHT22;14501;52.282;10.560;2022-09-09T16:38:55;20.80;99.90
26947;DHT22;14501;52.282;10.560;2022-09-09T16:41:23;20.80;99.90
26947;DHT22;14501;52.282;10.560;2022-09-09T16:43:53;20.80;99.90
26947;DHT22;14501;52.282;10.560;2022-09-09T16:46:20;20.60;99.90
26947;DHT22;14501;52.282;10.560;2022-09-09T16:48:48;20.60;99.90
26947;DHT22;14501;52.282;10.560;2022-09-09T16:51:18;20.50;99.90
26947;DHT22;14501;52.282;10.560;2022-09-09T16:53:44;20.40;99.90
26947;DHT22;14501;52.282;10.560;2022-09-09T16:56:13;20.30;99.90
26947;DHT22;14501;52.282;10.560;2022-09-09T16:58:39;20.30;99.90
26947;DHT22;14501;52.282;10.560;2022-09-09T17:01:05;20.10;99.90
26947;DHT22;14501;52.282;10.560;2022-09-09T17:03:31;20.00;99.90
26947;DHT22;14501;52.282;10.560;2022-09-09T17:05:58;19.80;99.90
26947;DHT22;14501;52.282;10.560;2022-09-09T17:08:28;19.80;99.90
26947;DHT22;14501;52.282;10.560;2022-09-09T17:10:54;19.80;99.90
26947;DHT22;14501;52.282;10.560;2022-09-09T17:13:20;19.60;99.90
26947;DHT22;14501;52.282;10.560;2022-09-09T17:15:46;19.50;99.90
26947;DHT22;14501;52.282;10.560;2022-09-09T17:18:13;19.40;99.90
26947;DHT22;14501;52.282;10.560;2022-09-09T17:20:40;19.30;99.90
26947;DHT22;14501;52.282;10.560;2022-09-09T17:23:07;19.20;99.90
26947;DHT22;14501;52.282;10.560;2022-09-09T17:25:32;19.00;99.90
26947;DHT22;14501;52.282;10.560;2022-09-09T17:27:58;19.00;99.90